Time;durP1;ratioP1;P1;durP2;ratioP2;P2;SDS_P1;SDS_P2;PMS_P1;PMS_P2;Temp;Humidity;BMP_temperature;BMP_pressure;BME280_temperature;BME280_humidity;BME280_pressure;Samples;Min_cycle;Max_cycle;Signal;HPM_P1;HPM_P2
2022/09/17 00:00:40;;;;;;;6.43;4.40;;;;;;;12.86;100.00;99548.50;5570502;32;33992;-74
2022/09/17 00:03:44;;;;;;;5.55;4.60;;;;;;;12.83;100.00;99542.78;5570460;32;34229;-73
2022/09/17 00:06:46;;;;;;;7.57;4.25;;;;;;;12.86;100.00;99548.50;5570385;32;35148;-72
2022/09/17 00:09:49;;;;;;;8.80;4.57;;;;;;;12.89;100.00;99549.91;5570678;32;34555;-72
2022/09/17 00:12:51;;;;;;;4.80;4.22;;;;;;;12.83;100.00;99551.53;5570432;32;34692;-71
2022/09/17 00:15:54;;;;;;;6.12;4.78;;;;;;;12.78;100.00;99559.31;5570411;32;34031;-70
2022/09/17 00:18:58;;;;;;;6.45;4.65;;;;;;;12.73;100.00;99563.62;5570316;32;35346;-72
2022/09/17 00:22:01;;;;;;;6.18;4.40;;;;;;;12.74;100.00;99568.72;5569823;32;34445;-70
2022/09/17 00:25:05;;;;;;;6.32;4.45;;;;;;;12.85;100.00;99565.47;5570350;32;33860;-70
2022/09/17 00:28:08;;;;;;;9.15;4.60;;;;;;;12.91;100.00;99556.69;5570037;31;33981;-70
2022/09/17 00:31:11;;;;;;;5.45;4.62;;;;;;;12.82;100.00;99557.91;5556650;32;33924;-71
2022/09/17 00:34:14;;;;;;;6.78;4.50;;;;;;;12.83;100.00;99548.09;5570151;32;34221;-70
2022/09/17 00:37:19;;;;;;;5.97;5.07;;;;;;;12.88;100.00;99540.28;5556367;32;34418;-70
2022/09/17 00:40:22;;;;;;;6.07;4.97;;;;;;;12.85;100.00;99535.37;5556559;32;33258;-70
2022/09/17 00:43:39;;;;;;;6.20;5.43;;;;;;;12.75;100.00;99525.12;5570256;32;34628;-70
2022/09/17 00:46:43;;;;;;;6.68;5.25;;;;;;;12.72;100.00;99527.38;5570201;32;34139;-70
2022/09/17 00:49:48;;;;;;;6.28;5.28;;;;;;;12.82;100.00;99527.81;5543358;32;33578;-70
2022/09/17 00:53:16;;;;;;;9.90;5.75;;;;;;;12.74;100.00;99517.34;5570170;32;33900;-70
2022/09/17 00:56:28;;;;;;;8.52;5.85;;;;;;;12.81;100.00;99515.53;5561297;32;33943;-70
2022/09/17 00:59:31;;;;;;;9.32;5.10;;;;;;;12.86;100.00;99516.56;5570109;32;33905;-70
2022/09/17 01:02:35;;;;;;;8.55;5.78;;;;;;;12.86;100.00;99510.41;5570322;32;33903;-70
2022/09/17 01:05:52;;;;;;;6.53;5.05;;;;;;;12.74;100.00;99520.81;5569870;32;34266;-70
2022/09/17 01:09:04;;;;;;;6.55;5.05;;;;;;;12.81;100.00;99508.34;5569901;32;33916;-70
2022/09/17 01:12:16;;;;;;;8.60;5.75;;;;;;;12.67;100.00;99512.03;5569919;32;34006;-70
2022/09/17 01:15:48;;;;;;;6.07;5.00;;;;;;;12.75;100.00;99506.50;5569909;32;33917;-69
2022/09/17 01:19:11;;;;;;;6.05;4.20;;;;;;;12.81;100.00;99508.34;5569812;32;33887;-69
2022/09/17 01:22:33;;;;;;;6.50;4.57;;;;;;;12.74;100.00;99498.72;5570170;32;34307;-69
2022/09/17 01:25:57;;;;;;;7.12;4.40;;;;;;;12.64;100.00;99502.59;5569737;32;34098;-68
2022/09/17 01:29:15;;;;;;;6.53;4.28;;;;;;;12.81;100.00;99507.53;5569886;32;34677;-70
2022/09/17 01:32:35;;;;;;;5.65;4.75;;;;;;;12.75;100.00;99513.66;5569576;32;33968;-68
2022/09/17 01:36:21;;;;;;;4.68;4.00;;;;;;;12.79;100.00;99522.88;5569684;32;34054;-68
2022/09/17 01:39:26;;;;;;;4.50;4.10;;;;;;;12.85;100.00;99525.56;5569384;32;34819;-68
2022/09/17 01:42:57;;;;;;;6.25;4.00;;;;;;;12.80;100.00;99524.53;5555834;32;32309;-68
2022/09/17 01:46:29;;;;;;;5.62;3.90;;;;;;;12.82;100.00;99533.12;5569793;32;33853;-68
2022/09/17 01:49:36;;;;;;;7.05;3.58;;;;;;;12.90;100.00;99530.28;5563376;32;33982;-68
2022/09/17 01:52:42;;;;;;;5.15;3.35;;;;;;;12.89;100.00;99541.94;5569313;32;33936;-67
2022/09/17 01:55:48;;;;;;;6.95;3.50;;;;;;;12.85;100.00;99546.03;5569289;32;34042;-67
2022/09/17 01:59:04;;;;;;;6.53;4.03;;;;;;;12.98;100.00;99549.53;5569483;32;34657;-68
2022/09/17 02:02:19;;;;;;;3.90;3.50;;;;;;;12.97;100.00;99545.22;5569255;32;34603;-67
2022/09/17 02:05:26;;;;;;;5.90;3.50;;;;;;;12.97;100.00;99547.09;5569238;32;34053;-66
2022/09/17 02:08:41;;;;;;;4.15;3.35;;;;;;;12.97;100.00;99549.75;5568932;32;34644;-67
2022/09/17 02:11:48;;;;;;;5.32;3.78;;;;;;;13.00;100.00;99542.16;5568861;32;34881;-67
2022/09/17 02:14:57;;;;;;;3.90;3.50;;;;;;;12.99;100.00;99540.53;5568915;32;34011;-67
2022/09/17 02:18:17;;;;;;;5.97;3.55;;;;;;;13.06;100.00;99541.34;5568940;32;35156;-67
2022/09/17 02:21:43;;;;;;;12.20;3.30;;;;;;;13.00;100.00;99530.69;5554761;32;33354;-68
2022/09/17 02:24:56;;;;;;;3.62;2.75;;;;;;;13.06;100.00;99529.88;5568720;32;34726;-67
2022/09/17 02:28:22;;;;;;;4.93;3.28;;;;;;;13.01;100.00;99530.50;5568828;32;33952;-67
2022/09/17 02:31:25;;;;;;;5.00;3.50;;;;;;;13.01;100.00;99519.84;5569033;32;34545;-67
2022/09/17 02:34:28;;;;;;;4.55;3.30;;;;;;;13.00;100.00;99520.03;5555258;32;34085;-67
2022/09/17 02:37:31;;;;;;;3.72;2.92;;;;;;;12.94;100.00;99526.19;5568561;32;34001;-67
2022/09/17 02:40:43;;;;;;;4.07;2.90;;;;;;;12.93;100.00;99535.19;5568542;32;33867;-67
2022/09/17 02:43:49;;;;;;;5.32;3.20;;;;;;;12.87;100.00;99520.87;5570015;32;34815;-67
2022/09/17 02:47:31;;;;;;;3.87;2.80;;;;;;;12.86;100.00;99500.59;5571215;32;34558;-67
2022/09/17 02:50:39;;;;;;;4.20;3.00;;;;;;;12.84;100.00;99493.81;5557440;32;32788;-67
2022/09/17 02:53:47;;;;;;;5.05;3.25;;;;;;;12.80;100.00;99490.75;5571150;32;33988;-67
2022/09/17 02:56:56;;;;;;;3.60;2.95;;;;;;;12.80;100.00;99489.91;5571160;32;34786;-66
2022/09/17 03:00:15;;;;;;;4.95;3.12;;;;;;;12.81;100.00;99491.56;5571199;32;33973;-67
2022/09/17 03:03:25;;;;;;;5.12;2.85;;;;;;;12.78;100.00;99479.47;5571125;32;33882;-67
2022/09/17 03:06:28;;;;;;;6.10;3.03;;;;;;;12.79;100.00;99482.94;5571079;32;34011;-67
2022/09/17 03:09:32;;;;;;;3.58;3.15;;;;;;;12.68;100.00;99481.75;5571303;32;33926;-67
2022/09/17 03:12:36;;;;;;;4.20;3.00;;;;;;;12.66;100.00;99466.97;5570903;32;33989;-68
2022/09/17 03:15:45;;;;;;;4.47;3.10;;;;;;;12.66;100.00;99467.81;5571138;32;34862;-66
2022/09/17 03:18:47;;;;;;;11.25;3.45;;;;;;;12.67;100.00;99460.66;5570902;32;34668;-67
2022/09/17 03:21:50;;;;;;;4.82;3.10;;;;;;;12.66;100.00;99451.84;5556707;32;32806;-68
2022/09/17 03:24:52;;;;;;;5.18;3.00;;;;;;;12.54;100.00;99435.66;5570912;32;34675;-69
2022/09/17 03:27:55;;;;;;;4.07;2.90;;;;;;;12.53;100.00;99427.88;5570482;32;33898;-67
2022/09/17 03:30:58;;;;;;;4.30;3.20;;;;;;;12.57;100.00;99413.97;5570790;32;34397;-69
2022/09/17 03:34:00;;;;;;;5.75;3.40;;;;;;;12.52;100.00;99400.47;5571120;32;33970;-66
2022/09/17 03:37:03;;;;;;;5.18;3.10;;;;;;;12.57;100.00;99392.69;5571148;32;33906;-69
2022/09/17 03:40:07;;;;;;;5.45;3.20;;;;;;;12.50;100.00;99389.19;5571155;32;34052;-68
2022/09/17 03:43:09;;;;;;;4.32;3.30;;;;;;;12.44;100.00;99384.69;5570974;32;33963;-68
2022/09/17 03:46:12;;;;;;;4.37;3.40;;;;;;;12.40;100.00;99385.28;5570565;32;34283;-68
2022/09/17 03:49:15;;;;;;;5.20;3.20;;;;;;;12.37;100.00;99377.72;5570564;32;33927;-67
2022/09/17 03:52:18;;;;;;;7.45;3.22;;;;;;;12.37;100.00;99388.38;5570515;32;34866;-68
2022/09/17 03:55:20;;;;;;;5.05;3.45;;;;;;;12.33;100.00;99395.12;5569940;32;35287;-68
2022/09/17 03:58:23;;;;;;;4.47;3.80;;;;;;;12.33;100.00;99395.94;5570578;32;34007;-68
2022/09/17 04:01:27;;;;;;;4.70;3.50;;;;;;;12.36;100.00;99392.88;5570507;32;34623;-68
2022/09/17 04:04:30;;;;;;;9.23;3.90;;;;;;;12.34;100.00;99396.78;5570866;32;33986;-66
2022/09/17 04:07:33;;;;;;;5.20;3.70;;;;;;;12.35;100.00;99401.88;5566258;32;139912;-68
2022/09/17 04:10:36;;;;;;;5.68;3.70;;;;;;;12.35;100.00;99404.53;5570445;32;34041;-68
2022/09/17 04:13:38;;;;;;;5.57;3.22;;;;;;;12.33;100.00;99403.94;5570836;32;33895;-67
2022/09/17 04:16:41;;;;;;;6.43;3.35;;;;;;;12.34;100.00;99410.06;5570345;32;34434;-65
2022/09/17 04:19:44;;;;;;;5.20;3.22;;;;;;;12.34;100.00;99428.69;5556796;32;33113;-69
2022/09/17 04:22:46;;;;;;;7.18;3.70;;;;;;;12.28;100.00;99419.66;5570790;32;34379;-68
2022/09/17 04:25:49;;;;;;;3.80;3.25;;;;;;;12.22;100.00;99416.97;5570364;32;34549;-67
2022/09/17 04:28:52;;;;;;;7.10;3.78;;;;;;;12.28;100.00;99403.72;5570133;32;34361;-68
2022/09/17 04:31:54;;;;;;;5.95;3.25;;;;;;;12.35;100.00;99404.53;5570206;32;34560;-68
2022/09/17 04:34:57;;;;;;;5.10;3.58;;;;;;;12.19;100.00;99408.41;5570241;32;33947;-69
2022/09/17 04:38:00;;;;;;;6.22;3.30;;;;;;;12.16;100.00;99411.44;5570151;32;33927;-68
2022/09/17 04:41:06;;;;;;;4.28;3.33;;;;;;;12.14;100.00;99394.91;5543611;32;32476;-69
2022/09/17 04:44:08;;;;;;;5.87;3.42;;;;;;;12.12;100.00;99393.44;5570226;32;34027;-68
2022/09/17 04:47:11;;;;;;;5.28;3.40;;;;;;;12.11;100.00;99394.47;5570424;32;34158;-68
2022/09/17 04:50:13;;;;;;;5.28;3.25;;;;;;;12.10;100.00;99395.50;5570123;32;34693;-67
2022/09/17 04:53:17;;;;;;;6.68;3.50;;;;;;;12.10;100.00;99392.84;5570246;32;34661;-68
2022/09/17 04:56:20;;;;;;;3.60;3.25;;;;;;;12.08;100.00;99381.59;5570022;32;34645;-67
2022/09/17 04:59:23;;;;;;;5.05;3.30;;;;;;;12.11;100.00;99378.50;5570071;32;33996;-67
2022/09/17 05:02:25;;;;;;;6.15;3.33;;;;;;;12.14;100.00;99378.94;5569836;32;34106;-67
2022/09/17 05:05:28;;;;;;;4.62;3.40;;;;;;;12.14;100.00;99378.13;5569643;32;34410;-67
2022/09/17 05:08:31;;;;;;;5.53;3.33;;;;;;;12.17;100.00;99397.13;5569929;32;34619;-67
2022/09/17 05:11:34;;;;;;;5.80;3.25;;;;;;;12.11;100.00;99392.63;5569824;32;34020;-68
2022/09/17 05:14:37;;;;;;;6.80;3.17;;;;;;;12.17;100.00;99389.16;5569894;32;34046;-68
2022/09/17 05:17:39;;;;;;;5.78;3.15;;;;;;;12.20;100.00;99398.56;5570125;32;34871;-67
2022/09/17 05:20:42;;;;;;;6.60;3.20;;;;;;;12.15;100.00;99404.50;5569729;32;33846;-68
2022/09/17 05:23:46;;;;;;;4.50;3.10;;;;;;;12.13;100.00;99401.22;5569893;32;35234;-68
2022/09/17 05:26:49;;;;;;;5.85;3.20;;;;;;;12.14;100.00;99399.41;5569643;32;34215;-68
2022/09/17 05:29:52;;;;;;;5.22;3.15;;;;;;;12.14;100.00;99407.37;5569567;32;34881;-68
2022/09/17 05:33:02;;;;;;;4.43;2.83;;;;;;;12.15;100.00;99406.34;5555784;32;34620;-67
2022/09/17 05:36:05;;;;;;;4.93;3.08;;;;;;;12.16;100.00;99422.09;5569562;32;34762;-68
2022/09/17 05:39:08;;;;;;;3.22;2.87;;;;;;;12.15;100.00;99417.78;5569542;32;34015;-68
2022/09/17 05:42:10;;;;;;;6.20;3.12;;;;;;;12.17;100.00;99417.59;5569633;32;34629;-67
2022/09/17 05:45:13;;;;;;;4.40;3.35;;;;;;;12.18;100.00;99427.22;5569429;32;33932;-68
2022/09/17 05:48:16;;;;;;;3.78;2.90;;;;;;;12.22;100.00;99438.25;5569341;32;34249;-67
2022/09/17 05:51:18;;;;;;;4.28;2.80;;;;;;;12.31;100.00;99442.38;5569368;32;33855;-68
2022/09/17 05:54:21;;;;;;;5.47;2.80;;;;;;;12.29;100.00;99444.44;5569289;32;34538;-68
2022/09/17 05:57:27;;;;;;;5.10;2.97;;;;;;;12.31;100.00;99451.16;5569277;32;34177;-68
2022/09/17 06:00:30;;;;;;;4.35;2.80;;;;;;;12.31;100.00;99450.34;5569320;32;34350;-68
2022/09/17 06:03:32;;;;;;;4.00;2.87;;;;;;;12.33;100.00;99458.94;5569208;32;34021;-66
2022/09/17 06:06:37;;;;;;;3.97;2.50;;;;;;;12.42;100.00;99463.06;5569035;32;33893;-67
2022/09/17 06:09:40;;;;;;;5.93;2.53;;;;;;;12.42;100.00;99455.09;5555751;32;33951;-67
2022/09/17 06:12:42;;;;;;;4.50;2.47;;;;;;;12.43;100.00;99464.69;5568912;32;34675;-67
2022/09/17 06:15:50;;;;;;;6.85;2.53;;;;;;;12.48;100.00;99462.25;5555358;32;32280;-66
2022/09/17 06:18:53;;;;;;;3.97;2.35;;;;;;;12.47;100.00;99468.59;5556196;32;32485;-68
2022/09/17 06:21:55;;;;;;;2.92;2.37;;;;;;;12.48;100.00;99456.94;5571709;32;33979;-67
2022/09/17 06:25:02;;;;;;;4.18;2.15;;;;;;;12.49;100.00;99447.94;5571369;32;33917;-67
2022/09/17 06:28:05;;;;;;;5.32;2.33;;;;;;;12.45;100.00;99447.50;5557813;32;34014;-64
2022/09/17 06:31:09;;;;;;;4.00;2.30;;;;;;;12.46;100.00;99429.72;5571164;32;34711;-66
2022/09/17 06:34:12;;;;;;;2.62;2.22;;;;;;;12.67;100.00;99439.34;5571284;32;34770;-67
2022/09/17 06:37:15;;;;;;;2.62;2.42;;;;;;;12.46;100.00;99457.12;5557630;32;34032;-67
2022/09/17 06:40:17;;;;;;;5.18;2.33;;;;;;;12.49;100.00;99454.06;5570930;32;34058;-66
2022/09/17 06:43:21;;;;;;;3.42;2.45;;;;;;;12.50;100.00;99458.38;5571309;32;34640;-67
2022/09/17 06:46:24;;;;;;;6.12;2.53;;;;;;;12.40;100.00;99459.78;5571084;32;33982;-66
2022/09/17 06:49:27;;;;;;;4.12;2.10;;;;;;;12.47;100.00;99465.94;5570768;32;34412;-66
2022/09/17 06:52:30;;;;;;;3.95;2.30;;;;;;;12.52;100.00;99474.13;5571023;32;33954;-68
2022/09/17 06:55:32;;;;;;;4.25;2.40;;;;;;;12.53;100.00;99467.78;5557422;32;34055;-67
2022/09/17 06:58:37;;;;;;;4.57;2.40;;;;;;;12.47;100.00;99471.25;5571056;32;33896;-66
2022/09/17 07:01:39;;;;;;;8.40;2.35;;;;;;;12.47;100.00;99477.41;5571348;32;33924;-66
2022/09/17 07:04:42;;;;;;;3.97;2.20;;;;;;;12.50;100.00;99478.81;5571221;32;33929;-65
2022/09/17 07:07:44;;;;;;;4.22;2.30;;;;;;;12.70;100.00;99489.50;5571303;32;34457;-67
2022/09/17 07:10:49;;;;;;;8.82;2.42;;;;;;;12.68;100.00;99479.06;5570755;32;34649;-68
2022/09/17 07:13:51;;;;;;;4.20;2.30;;;;;;;12.74;99.99;99480.09;5556759;32;32774;-68
2022/09/17 07:16:54;;;;;;;5.10;2.17;;;;;;;12.68;100.00;99483.56;5570801;32;34100;-67
2022/09/17 07:19:56;;;;;;;3.78;2.67;;;;;;;12.58;100.00;99484.78;5570506;32;34472;-66
2022/09/17 07:22:59;;;;;;;5.60;2.60;;;;;;;12.73;100.00;99494.44;5570731;32;34620;-66
2022/09/17 07:26:13;;;;;;;4.18;2.20;;;;;;;12.70;100.00;99490.31;5556445;32;32407;-67
2022/09/17 07:29:16;;;;;;;5.72;2.72;;;;;;;12.85;100.00;99466.16;5556698;32;32993;-67
2022/09/17 07:32:19;;;;;;;6.10;2.35;;;;;;;12.98;99.95;99466.16;5557002;32;31811;-66
2022/09/17 07:35:21;;;;;;;2.95;2.10;;;;;;;13.18;99.03;99483.00;5556871;32;36207;-66
2022/09/17 07:38:25;;;;;;;6.53;2.45;;;;;;;13.31;97.47;99474.97;5556989;32;32742;-67
2022/09/17 07:41:28;;;;;;;4.85;2.50;;;;;;;13.30;97.24;99473.34;5557006;32;33338;-67
2022/09/17 07:44:30;;;;;;;4.37;2.50;;;;;;;13.62;94.58;99479.62;5570659;32;33679;-67
2022/09/17 07:47:38;;;;;;;4.65;2.35;;;;;;;13.43;93.69;99475.16;5570875;32;33958;-68
2022/09/17 07:50:40;;;;;;;3.75;2.50;;;;;;;13.69;93.38;99476.97;5570608;32;34173;-67
2022/09/17 07:53:43;;;;;;;6.20;2.42;;;;;;;13.62;93.64;99492.13;5570498;32;34120;-67
2022/09/17 07:56:45;;;;;;;6.03;2.60;;;;;;;13.40;94.05;99491.59;5570538;32;34014;-66
2022/09/17 07:59:48;;;;;;;3.78;2.20;;;;;;;13.35;94.41;99484.22;5570523;32;33928;-68
2022/09/17 08:02:55;;;;;;;4.68;2.30;;;;;;;13.39;93.66;99487.28;5556779;32;32450;-67
2022/09/17 08:06:04;;;;;;;7.20;2.30;;;;;;;13.24;95.18;99484.84;5570383;32;34029;-67
2022/09/17 08:09:08;;;;;;;5.00;2.42;;;;;;;13.44;95.46;99485.63;5570359;32;33950;-66
2022/09/17 08:12:11;;;;;;;6.62;2.30;;;;;;;13.58;94.34;99485.59;5570116;32;33772;-66
2022/09/17 08:15:18;;;;;;;5.72;2.40;;;;;;;13.60;94.53;99495.03;5570061;32;34100;-67
2022/09/17 08:18:21;;;;;;;7.10;2.47;;;;;;;13.70;93.16;99515.91;5570370;32;34048;-66
2022/09/17 08:21:23;;;;;;;4.25;2.17;;;;;;;13.55;95.74;99523.31;5570305;32;34752;-68
2022/09/17 08:24:26;;;;;;;4.00;2.15;;;;;;;13.51;94.33;99514.13;5570213;32;34683;-65
2022/09/17 08:27:30;;;;;;;3.95;1.95;;;;;;;13.63;93.05;99515.94;5570155;32;34042;-67
2022/09/17 08:30:33;;;;;;;4.20;2.03;;;;;;;13.72;90.54;99512.00;5556447;32;34646;-67
2022/09/17 08:33:37;;;;;;;2.87;1.80;;;;;;;13.78;89.64;99515.69;5569955;32;34623;-67
2022/09/17 08:36:40;;;;;;;3.65;2.10;;;;;;;13.69;89.63;99519.59;5570054;32;33918;-66
2022/09/17 08:39:43;;;;;;;6.55;2.20;;;;;;;13.75;92.18;99508.09;5556320;32;32456;-66
2022/09/17 08:42:53;;;;;;;6.03;2.37;;;;;;;13.64;91.30;99511.41;5542763;32;33078;-67
2022/09/17 08:45:57;;;;;;;7.05;2.95;;;;;;;13.71;91.66;99513.03;5569965;32;34372;-66
2022/09/17 08:49:14;;;;;;;4.47;2.90;;;;;;;13.65;91.64;99521.84;5570178;32;33965;-68
2022/09/17 08:52:39;;;;;;;4.12;3.10;;;;;;;13.47;92.64;99522.50;5556110;32;35341;-66
2022/09/17 08:55:48;;;;;;;6.50;3.12;;;;;;;13.26;93.41;99500.63;5570017;32;33997;-67
2022/09/17 08:59:19;;;;;;;6.82;2.90;;;;;;;13.20;93.58;99482.78;5569843;32;33969;-66
2022/09/17 09:02:33;;;;;;;6.25;2.70;;;;;;;13.48;94.13;99494.84;5569842;32;34571;-65
2022/09/17 09:05:47;;;;;;;3.35;2.60;;;;;;;13.41;93.37;99504.69;5570057;32;34142;-68
2022/09/17 09:09:02;;;;;;;5.75;2.50;;;;;;;13.35;93.55;99502.84;5556491;32;34039;-67
2022/09/17 09:12:10;;;;;;;3.87;2.80;;;;;;;13.21;94.95;99503.06;5556099;32;34102;-66
2022/09/17 09:15:29;;;;;;;4.32;2.53;;;;;;;13.02;94.14;99516.13;5556184;32;34033;-67
2022/09/17 09:18:37;;;;;;;7.30;2.60;;;;;;;12.96;94.97;99524.12;5569801;32;33982;-67
2022/09/17 09:21:57;;;;;;;4.40;2.53;;;;;;;12.94;95.31;99527.00;5569751;32;34602;-66
2022/09/17 09:25:10;;;;;;;3.95;2.58;;;;;;;12.99;96.46;99516.56;5569576;32;34499;-65
2022/09/17 09:28:39;;;;;;;5.95;2.70;;;;;;;13.22;95.69;99520.66;5569480;32;34183;-65
2022/09/17 09:31:53;;;;;;;5.07;2.78;;;;;;;13.19;95.22;99511.25;5554282;32;32769;-67
2022/09/17 09:35:00;;;;;;;5.78;2.45;;;;;;;13.42;92.83;99506.31;5569919;32;33944;-66
2022/09/17 09:38:28;;;;;;;3.87;2.50;;;;;;;13.24;93.08;99508.81;5569283;32;33915;-67
2022/09/17 09:41:39;;;;;;;5.82;2.50;;;;;;;13.43;92.66;99517.78;5555742;32;32775;-66
2022/09/17 09:44:41;;;;;;;6.53;2.78;;;;;;;13.71;91.66;99510.34;5569295;32;35201;-67
2022/09/17 09:47:57;;;;;;;4.75;2.20;;;;;;;13.79;91.00;99506.66;5555683;32;32298;-67
2022/09/17 09:51:37;;;;;;;7.05;2.50;;;;;;;13.86;90.96;99518.09;5569112;32;33944;-64
2022/09/17 09:54:43;;;;;;;5.80;2.20;;;;;;;14.07;88.88;99520.50;5568151;32;35205;-66
2022/09/17 09:58:02;;;;;;;3.78;2.20;;;;;;;13.96;90.73;99529.16;5569043;32;34178;-68
2022/09/17 10:01:13;;;;;;;3.35;2.15;;;;;;;13.85;89.56;99519.13;5568997;32;33937;-65
2022/09/17 10:04:18;;;;;;;3.78;2.05;;;;;;;13.82;89.57;99520.37;5568868;32;34581;-66
2022/09/17 10:07:21;;;;;;;5.15;2.20;;;;;;;13.91;89.24;99543.13;5568756;32;34056;-66
2022/09/17 10:10:23;;;;;;;4.00;1.95;;;;;;;13.87;88.48;99533.91;5569163;32;34307;-66
2022/09/17 10:13:29;;;;;;;4.28;1.90;;;;;;;13.81;88.32;99523.25;5555113;32;32581;-66
2022/09/17 10:16:35;;;;;;;4.40;2.20;;;;;;;13.81;87.96;99510.75;5569154;32;34248;-69
2022/09/17 10:19:38;;;;;;;4.03;1.90;;;;;;;13.86;86.58;99500.28;5568765;32;35157;-64
2022/09/17 10:22:45;;;;;;;4.55;1.92;;;;;;;14.02;84.13;99485.66;5568364;32;33926;-67
2022/09/17 10:25:48;;;;;;;4.70;2.17;;;;;;;13.89;86.59;99489.16;5568730;32;35289;-66
2022/09/17 10:28:55;;;;;;;4.32;1.80;;;;;;;13.98;85.67;99491.63;5568535;32;34144;-65
2022/09/17 10:31:57;;;;;;;8.35;1.90;;;;;;;14.04;83.77;99488.91;5568492;32;34546;-66
2022/09/17 10:35:05;;;;;;;5.10;1.85;;;;;;;14.00;84.42;99481.53;5554736;32;34009;-65
2022/09/17 10:38:26;;;;;;;2.85;1.73;;;;;;;14.18;83.54;99455.03;5568557;32;35349;-66
2022/09/17 10:41:29;;;;;;;4.00;1.90;;;;;;;14.27;81.67;99446.56;5554546;32;32757;-65
2022/09/17 10:44:34;;;;;;;2.85;1.50;;;;;;;14.64;79.64;99454.75;5554209;32;32484;-67
2022/09/17 10:47:41;;;;;;;3.28;1.70;;;;;;;14.56;79.05;99479.88;5554608;32;33267;-69
2022/09/17 10:50:55;;;;;;;6.87;1.60;;;;;;;14.40;79.61;99472.34;5568254;32;35337;-67
2022/09/17 10:54:19;;;;;;;3.28;1.58;;;;;;;14.23;77.93;99468.53;5568318;32;33601;-67
2022/09/17 10:57:44;;;;;;;4.15;1.75;;;;;;;14.17;78.39;99453.38;5568057;32;34531;-66
2022/09/17 11:01:09;;;;;;;3.08;1.17;;;;;;;14.27;77.34;99427.88;5568271;32;34605;-66
2022/09/17 11:04:21;;;;;;;6.05;1.60;;;;;;;14.31;75.55;99425.59;5568746;32;33920;-65
2022/09/17 11:07:54;;;;;;;5.37;1.30;;;;;;;14.57;73.57;99385.38;5557215;32;32473;-65
2022/09/17 11:11:17;;;;;;;4.43;1.40;;;;;;;14.64;71.40;99386.16;5557281;32;34268;-67
2022/09/17 11:14:45;;;;;;;4.30;1.30;;;;;;;14.21;72.56;99395.91;5570862;32;33897;-68
2022/09/17 11:17:57;;;;;;;6.10;1.30;;;;;;;14.23;73.06;99428.53;5570771;32;33995;-65
2022/09/17 11:21:12;;;;;;;3.55;1.35;;;;;;;14.25;74.17;99429.94;5557131;32;33298;-68
2022/09/17 11:24:26;;;;;;;2.67;1.23;;;;;;;14.05;72.80;99412.41;5557136;32;32439;-67
2022/09/17 11:27:39;;;;;;;6.62;1.42;;;;;;;14.06;72.29;99414.03;5570737;32;35280;-67
2022/09/17 11:31:03;;;;;;;5.15;1.48;;;;;;;13.92;71.14;99419.44;5570613;32;34041;-67
2022/09/17 11:34:27;;;;;;;4.43;1.15;;;;;;;14.10;71.18;99450.72;5556844;32;32938;-66
2022/09/17 11:37:39;;;;;;;3.67;1.08;;;;;;;14.21;71.12;99457.25;5571040;32;34353;-69
2022/09/17 11:40:45;;;;;;;4.20;1.30;;;;;;;14.11;69.87;99433.72;5556948;32;32525;-67
2022/09/17 11:44:14;;;;;;;4.60;1.25;;;;;;;13.98;70.46;99425.78;5570634;32;34331;-69
2022/09/17 11:47:36;;;;;;;2.12;1.00;;;;;;;14.29;68.91;99427.66;5570480;32;35346;-68
2022/09/17 11:50:56;;;;;;;4.40;1.12;;;;;;;14.23;68.02;99431.97;5570385;32;34019;-66
2022/09/17 11:54:06;;;;;;;2.40;1.00;;;;;;;14.40;66.48;99434.19;5570605;32;33945;-67
2022/09/17 11:57:12;;;;;;;2.62;1.00;;;;;;;14.18;66.83;99418.50;5570091;32;33970;-67
2022/09/17 12:00:19;;;;;;;4.20;0.98;;;;;;;14.05;68.25;99401.72;5570506;32;34379;-67
2022/09/17 12:03:58;;;;;;;3.17;1.42;;;;;;;14.02;68.43;99380.84;5570754;32;35187;-66
2022/09/17 12:07:12;;;;;;;4.12;1.20;;;;;;;14.00;69.10;99375.69;5557642;32;34686;-66
2022/09/17 12:10:35;;;;;;;5.25;1.50;;;;;;;14.09;69.20;99357.59;5556727;32;33346;-66
2022/09/17 12:13:47;;;;;;;3.10;1.17;;;;;;;14.21;69.25;99329.22;5543898;32;33394;-66
2022/09/17 12:16:57;;;;;;;3.20;1.30;;;;;;;14.21;68.92;99329.22;5555733;32;32517;-66
2022/09/17 12:20:10;;;;;;;4.05;1.60;;;;;;;14.04;68.90;99342.22;5556246;32;32840;-65
2022/09/17 12:23:37;;;;;;;5.35;1.30;;;;;;;13.94;69.03;99345.37;5570261;32;34733;-66
2022/09/17 12:26:52;;;;;;;5.03;1.60;;;;;;;14.08;68.90;99338.13;5570188;32;33991;-65
2022/09/17 12:30:15;;;;;;;4.95;1.55;;;;;;;13.96;69.37;99325.69;5570037;32;33891;-66
2022/09/17 12:33:59;;;;;;;1.90;1.00;;;;;;;13.70;70.63;99318.69;5556456;32;32695;-67
2022/09/17 12:37:22;;;;;;;3.60;1.33;;;;;;;13.81;70.34;99302.00;5553914;32;33515;-67
2022/09/17 12:40:46;;;;;;;5.12;1.33;;;;;;;13.63;71.25;99299.22;5556087;32;34147;-67
2022/09/17 12:44:16;;;;;;;3.75;1.12;;;;;;;13.73;71.38;99295.06;5570549;32;35119;-67
2022/09/17 12:47:40;;;;;;;6.03;1.40;;;;;;;13.66;72.43;99296.12;5570327;32;35180;-67
2022/09/17 12:51:07;;;;;;;6.25;1.17;;;;;;;13.85;72.35;99282.69;5570304;32;35220;-66
2022/09/17 12:54:20;;;;;;;4.80;1.30;;;;;;;14.07;72.24;99271.66;5556242;32;32463;-66
2022/09/17 12:57:36;;;;;;;4.32;1.40;;;;;;;14.09;71.72;99294.41;5570105;32;34688;-67
2022/09/17 13:00:49;;;;;;;5.37;1.40;;;;;;;13.95;72.75;99306.19;5569970;32;34595;-66
2022/09/17 13:04:00;;;;;;;4.93;1.45;;;;;;;14.03;73.03;99305.97;5570212;32;33803;-66
2022/09/17 13:07:33;;;;;;;6.10;1.20;;;;;;;13.91;72.97;99311.16;5556264;32;32306;-67
2022/09/17 13:11:06;;;;;;;2.80;1.40;;;;;;;13.86;73.74;99308.31;5569896;32;34669;-67
2022/09/17 13:14:27;;;;;;;2.70;1.40;;;;;;;13.91;73.86;99316.47;5556142;32;33866;-67
2022/09/17 13:17:30;;;;;;;4.93;1.52;;;;;;;13.83;74.36;99316.75;5569818;32;34249;-66
2022/09/17 13:20:40;;;;;;;4.40;1.45;;;;;;;13.98;73.99;99304.97;5556019;32;33434;-67
2022/09/17 13:23:48;;;;;;;4.68;1.42;;;;;;;13.84;74.20;99282.91;5569696;32;33950;-67
2022/09/17 13:26:53;;;;;;;4.45;1.60;;;;;;;13.81;74.19;99286.81;5569208;32;34045;-66
2022/09/17 13:29:56;;;;;;;4.10;1.55;;;;;;;13.84;74.38;99290.91;5555219;32;34365;-65
2022/09/17 13:32:59;;;;;;;4.18;1.75;;;;;;;13.83;75.54;99292.75;5569604;32;34512;-65
2022/09/17 13:36:03;;;;;;;4.10;1.50;;;;;;;13.78;75.81;99292.59;5555428;32;34490;-66
2022/09/17 13:39:08;;;;;;;6.35;1.70;;;;;;;13.73;76.02;99284.41;5569592;32;34141;-66
2022/09/17 13:42:18;;;;;;;4.95;1.50;;;;;;;13.62;77.38;99271.75;5569459;32;34262;-65
2022/09/17 13:45:22;;;;;;;4.45;1.50;;;;;;;13.66;76.99;99269.47;5555238;32;33797;-67
2022/09/17 13:48:28;;;;;;;8.68;1.77;;;;;;;13.54;77.51;99244.56;5568778;32;33928;-65
2022/09/17 13:51:31;;;;;;;5.03;1.80;;;;;;;13.60;77.36;99255.19;5555600;32;33395;-66
2022/09/17 13:54:37;;;;;;;3.92;1.60;;;;;;;13.55;78.06;99256.84;5569610;32;34830;-65
2022/09/17 13:57:48;;;;;;;3.30;1.50;;;;;;;13.48;79.04;99275.53;5569284;32;33982;-64
2022/09/17 14:00:51;;;;;;;8.13;1.55;;;;;;;13.49;79.08;99250.53;5569005;32;33950;-67
2022/09/17 14:03:55;;;;;;;4.55;1.70;;;;;;;13.45;79.53;99252.00;5569212;32;33888;-66
2022/09/17 14:06:58;;;;;;;6.60;1.80;;;;;;;13.57;78.62;99252.94;5569154;32;33945;-66
2022/09/17 14:10:21;;;;;;;5.30;1.60;;;;;;;13.46;78.41;99273.06;5568985;32;33892;-66
2022/09/17 14:13:40;;;;;;;6.82;1.80;;;;;;;13.45;78.44;99270.63;5555208;32;32332;-67
2022/09/17 14:16:44;;;;;;;5.47;1.55;;;;;;;13.48;79.36;99279.03;5568688;32;34801;-67
2022/09/17 14:19:49;;;;;;;5.20;1.90;;;;;;;13.52;77.60;99270.59;5555058;32;34606;-65
2022/09/17 14:22:59;;;;;;;7.85;1.77;;;;;;;13.49;78.23;99278.00;5555374;32;32320;-67
2022/09/17 14:26:05;;;;;;;3.47;1.50;;;;;;;13.40;78.22;99281.12;5568773;32;34599;-67
2022/09/17 14:29:45;;;;;;;4.82;1.40;;;;;;;13.41;78.66;99270.22;5554531;32;32320;-67
2022/09/17 14:33:13;;;;;;;6.07;1.80;;;;;;;13.34;78.75;99279.28;5532520;32;33040;-65
2022/09/17 14:36:19;;;;;;;6.00;1.77;;;;;;;13.35;78.19;99292.41;5568883;32;34425;-66
2022/09/17 14:39:28;;;;;;;3.92;1.45;;;;;;;13.20;78.53;99299.03;5555097;32;33743;-64
2022/09/17 14:42:35;;;;;;;4.07;1.50;;;;;;;13.26;79.39;99307.00;5557576;32;32347;-65
2022/09/17 14:45:41;;;;;;;3.40;1.40;;;;;;;13.18;79.02;99317.03;5557036;32;33642;-65